Time;durP1;ratioP1;P1;durP2;ratioP2;P2;SDS_P1;SDS_P2;PMS_P1;PMS_P2;Temp;Humidity;BMP_temperature;BMP_pressure;BME280_temperature;BME280_humidity;BME280_pressure;Samples;Min_cycle;Max_cycle;Signal;HPM_P1;HPM_P2
2023/09/19 00:00:37;;;;;;;3.47;1.60;;;;;;;;;;5095847;28;20491;-53
2023/09/19 00:03:06;;;;;;;1.80;1.23;;;;;;;;;;5094179;28;20198;-49
2023/09/19 00:05:38;;;;;;;3.80;1.20;;;;;;;;;;5094557;28;20202;-49
2023/09/19 00:08:04;;;;;;;2.17;1.47;;;;;;;;;;5094409;28;20267;-48
2023/09/19 00:10:32;;;;;;;2.77;1.30;;;;;;;;;;5094195;28;20176;-50
2023/09/19 00:13:06;;;;;;;4.80;1.23;;;;;;;;;;5094016;28;20176;-48
2023/09/19 00:15:41;;;;;;;3.73;1.40;;;;;;;;;;5093069;28;20229;-50
2023/09/19 00:18:12;;;;;;;4.60;1.50;;;;;;;;;;5091374;28;20167;-50
2023/09/19 00:20:39;;;;;;;4.60;1.63;;;;;;;;;;5092261;28;20182;-49
2023/09/19 00:23:08;;;;;;;3.90;1.57;;;;;;;;;;5094180;28;20168;-54
2023/09/19 00:25:36;;;;;;;5.47;2.17;;;;;;;;;;5093797;28;20303;-50
2023/09/19 00:28:03;;;;;;;4.80;1.50;;;;;;;;;;5094061;28;20183;-48
2023/09/19 00:30:31;;;;;;;3.50;1.63;;;;;;;;;;5094403;28;20168;-55
2023/09/19 00:32:57;;;;;;;6.20;1.90;;;;;;;;;;5095271;28;20254;-49
2023/09/19 00:35:25;;;;;;;3.27;1.47;;;;;;;;;;5093940;28;20270;-53
2023/09/19 00:37:53;;;;;;;6.60;1.90;;;;;;;;;;5093587;28;20182;-51
2023/09/19 00:40:22;;;;;;;4.07;1.80;;;;;;;;;;5095276;28;20187;-50
2023/09/19 00:42:49;;;;;;;3.33;1.70;;;;;;;;;;5095553;28;20337;-52
2023/09/19 00:45:17;;;;;;;4.33;1.37;;;;;;;;;;5094437;28;20200;-51
2023/09/19 00:47:54;;;;;;;2.13;1.20;;;;;;;;;;5093919;28;20184;-49
2023/09/19 00:50:22;;;;;;;1.83;1.07;;;;;;;;;;5094073;28;20174;-48
2023/09/19 00:52:55;;;;;;;2.73;1.40;;;;;;;;;;5094269;28;20174;-48
2023/09/19 00:55:24;;;;;;;5.90;1.67;;;;;;;;;;5093845;28;20183;-50
2023/09/19 00:57:50;;;;;;;2.83;1.30;;;;;;;;;;5094442;28;20228;-50
2023/09/19 01:00:21;;;;;;;4.37;1.87;;;;;;;;;;5094366;28;20275;-50
2023/09/19 01:02:47;;;;;;;6.20;2.43;;;;;;;;;;5094266;28;20179;-49
2023/09/19 01:05:15;;;;;;;4.83;2.00;;;;;;;;;;5095503;28;20898;-51
2023/09/19 01:07:41;;;;;;;2.63;1.60;;;;;;;;;;5095134;28;20168;-50
2023/09/19 01:10:10;;;;;;;3.07;1.90;;;;;;;;;;5093517;28;20203;-51
2023/09/19 01:12:52;;;;;;;4.23;1.70;;;;;;;;;;5095036;28;20175;-49
2023/09/19 01:15:19;;;;;;;5.73;2.40;;;;;;;;;;5094161;28;20175;-51
2023/09/19 01:18:01;;;;;;;4.27;2.07;;;;;;;;;;5093770;28;20176;-52
2023/09/19 01:20:47;;;;;;;2.40;1.83;;;;;;;;;;5094558;28;20440;-54
2023/09/19 01:23:33;;;;;;;3.70;2.37;;;;;;;;;;5094745;28;20175;-49
2023/09/19 01:26:16;;;;;;;4.57;2.00;;;;;;;;;;5094804;28;20803;-51
2023/09/19 01:28:54;;;;;;;5.30;2.03;;;;;;;;;;5094635;28;20530;-51
2023/09/19 01:31:23;;;;;;;6.33;2.33;;;;;;;;;;5094794;28;20172;-52
2023/09/19 01:34:04;;;;;;;5.23;2.17;;;;;;;;;;5094502;28;20242;-53
2023/09/19 01:36:38;;;;;;;5.40;2.20;;;;;;;;;;5093926;28;20182;-49
2023/09/19 01:39:13;;;;;;;4.60;2.00;;;;;;;;;;5093515;28;20279;-54
2023/09/19 01:41:55;;;;;;;6.37;2.00;;;;;;;;;;5094983;28;20314;-50
2023/09/19 01:44:41;;;;;;;2.67;1.63;;;;;;;;;;5078067;28;20330;-50
2023/09/19 01:47:14;;;;;;;3.53;1.80;;;;;;;;;;5095405;28;20170;-50
2023/09/19 01:49:46;;;;;;;2.87;1.97;;;;;;;;;;5095298;28;20168;-53
2023/09/19 01:52:19;;;;;;;4.93;2.33;;;;;;;;;;5100881;28;20172;-52
2023/09/19 01:54:52;;;;;;;3.27;1.70;;;;;;;;;;5103049;28;20176;-52
2023/09/19 01:57:30;;;;;;;3.27;1.60;;;;;;;;;;5100652;28;20224;-48
2023/09/19 02:00:06;;;;;;;3.27;1.80;;;;;;;;;;5102145;28;20191;-53
2023/09/19 02:02:37;;;;;;;6.97;1.83;;;;;;;;;;5085205;28;20207;-48
2023/09/19 02:05:04;;;;;;;3.47;1.63;;;;;;;;;;5101783;28;20697;-54
2023/09/19 02:07:33;;;;;;;2.47;1.60;;;;;;;;;;5102459;28;20164;-49
2023/09/19 02:10:00;;;;;;;5.47;1.87;;;;;;;;;;5101442;28;20172;-48
2023/09/19 02:12:27;;;;;;;3.37;1.60;;;;;;;;;;5102459;28;20453;-54
2023/09/19 02:14:55;;;;;;;4.30;1.63;;;;;;;;;;5100381;28;20187;-49
2023/09/19 02:17:25;;;;;;;4.10;1.83;;;;;;;;;;5101630;28;20165;-49
2023/09/19 02:19:52;;;;;;;4.77;2.20;;;;;;;;;;5099983;28;20171;-50
2023/09/19 02:22:18;;;;;;;5.90;2.50;;;;;;;;;;5100999;28;20175;-53
2023/09/19 02:24:47;;;;;;;5.00;2.30;;;;;;;;;;5100851;28;20199;-51
2023/09/19 02:27:18;;;;;;;5.67;2.83;;;;;;;;;;5101520;28;20172;-51
2023/09/19 02:29:45;;;;;;;6.60;2.40;;;;;;;;;;5102045;28;20203;-50
2023/09/19 02:32:11;;;;;;;6.00;2.80;;;;;;;;;;5101143;28;20197;-50
2023/09/19 02:34:39;;;;;;;7.70;2.67;;;;;;;;;;5100944;28;20479;-49
2023/09/19 02:37:05;;;;;;;5.43;2.37;;;;;;;;;;5101149;28;20628;-50
2023/09/19 02:39:34;;;;;;;6.80;2.43;;;;;;;;;;5101228;28;20176;-50
2023/09/19 02:42:01;;;;;;;6.70;2.47;;;;;;;;;;5100513;28;20171;-50
2023/09/19 02:44:28;;;;;;;4.53;2.60;;;;;;;;;;5100731;28;20200;-50
2023/09/19 02:46:54;;;;;;;6.50;2.80;;;;;;;;;;5099819;28;20176;-49
2023/09/19 02:49:22;;;;;;;4.40;2.50;;;;;;;;;;5100902;28;20234;-49
2023/09/19 02:51:48;;;;;;;2.50;2.10;;;;;;;;;;5100500;28;20229;-54
2023/09/19 02:54:17;;;;;;;5.93;2.63;;;;;;;;;;5099601;28;20225;-49
2023/09/19 02:56:44;;;;;;;4.80;2.13;;;;;;;;;;5098495;28;20230;-49
2023/09/19 02:59:10;;;;;;;5.40;2.10;;;;;;;;;;5098886;28;20624;-50
2023/09/19 03:01:38;;;;;;;4.67;2.70;;;;;;;;;;5097274;28;20172;-48
2023/09/19 03:04:08;;;;;;;4.90;2.10;;;;;;;;;;5097388;28;20246;-51
2023/09/19 03:06:35;;;;;;;5.17;2.27;;;;;;;;;;5096130;28;20296;-51
2023/09/19 03:09:05;;;;;;;5.33;2.40;;;;;;;;;;5096667;28;20271;-54
2023/09/19 03:11:33;;;;;;;4.73;1.90;;;;;;;;;;5096311;28;20167;-50
2023/09/19 03:14:00;;;;;;;10.87;2.70;;;;;;;;;;5097166;28;20168;-50
2023/09/19 03:16:27;;;;;;;4.27;1.70;;;;;;;;;;5097711;28;20175;-49
2023/09/19 03:18:54;;;;;;;5.30;2.20;;;;;;;;;;5096175;28;20243;-52
2023/09/19 03:21:21;;;;;;;5.43;1.83;;;;;;;;;;5097119;28;20172;-50
2023/09/19 03:23:49;;;;;;;4.80;2.10;;;;;;;;;;5095522;28;20176;-48
2023/09/19 03:26:15;;;;;;;3.30;1.70;;;;;;;;;;5095493;28;20212;-52
2023/09/19 03:28:45;;;;;;;7.17;2.20;;;;;;;;;;5095814;28;20164;-53
2023/09/19 03:31:12;;;;;;;7.03;1.63;;;;;;;;;;5096332;28;20184;-52
2023/09/19 03:33:40;;;;;;;4.17;1.57;;;;;;;;;;5095567;28;20183;-54
2023/09/19 03:36:06;;;;;;;6.97;1.90;;;;;;;;;;5096751;28;20263;-48
2023/09/19 03:38:34;;;;;;;4.13;1.53;;;;;;;;;;5095457;28;20205;-48
2023/09/19 03:41:00;;;;;;;2.93;1.60;;;;;;;;;;5095615;28;20210;-48
2023/09/19 03:43:27;;;;;;;7.43;2.17;;;;;;;;;;5095112;28;20266;-52
2023/09/19 03:45:54;;;;;;;4.23;1.57;;;;;;;;;;5096304;28;20235;-51
2023/09/19 03:48:21;;;;;;;5.40;1.83;;;;;;;;;;5096458;28;20230;-50
2023/09/19 03:51:04;;;;;;;4.00;1.43;;;;;;;;;;5097304;28;20214;-50
2023/09/19 03:53:30;;;;;;;8.40;2.50;;;;;;;;;;5094973;28;20267;-54
2023/09/19 03:55:57;;;;;;;5.07;1.80;;;;;;;;;;5096560;28;20180;-51
2023/09/19 03:58:23;;;;;;;4.67;1.70;;;;;;;;;;5096020;28;20326;-48
2023/09/19 04:00:50;;;;;;;4.43;1.63;;;;;;;;;;5096113;28;20263;-53
2023/09/19 04:03:20;;;;;;;7.23;1.83;;;;;;;;;;5095057;28;20236;-53
2023/09/19 04:05:47;;;;;;;4.97;1.40;;;;;;;;;;5094943;28;20663;-50
2023/09/19 04:08:13;;;;;;;7.07;1.80;;;;;;;;;;5095588;28;20591;-49
2023/09/19 04:10:43;;;;;;;7.30;1.60;;;;;;;;;;5095894;28;20160;-49
2023/09/19 04:13:09;;;;;;;4.73;1.60;;;;;;;;;;5095857;28;20175;-51
2023/09/19 04:15:37;;;;;;;7.37;1.80;;;;;;;;;;5096468;28;20157;-51
2023/09/19 04:18:03;;;;;;;7.67;1.67;;;;;;;;;;5096280;28;20180;-51
2023/09/19 04:20:29;;;;;;;7.63;1.53;;;;;;;;;;5094840;28;20183;-52
2023/09/19 04:22:55;;;;;;;5.87;1.50;;;;;;;;;;5094288;28;20186;-50
2023/09/19 04:25:21;;;;;;;3.17;1.40;;;;;;;;;;5095496;28;20200;-51
2023/09/19 04:27:47;;;;;;;5.20;1.53;;;;;;;;;;5094610;28;20586;-50
2023/09/19 04:30:14;;;;;;;2.97;1.40;;;;;;;;;;5094062;28;20239;-53
2023/09/19 04:32:42;;;;;;;3.23;1.40;;;;;;;;;;5094374;28;20172;-49
2023/09/19 04:35:08;;;;;;;4.57;1.30;;;;;;;;;;5096171;28;20229;-47
2023/09/19 04:37:41;;;;;;;2.40;1.20;;;;;;;;;;5094725;28;20168;-51
2023/09/19 04:40:17;;;;;;;3.77;1.73;;;;;;;;;;5094115;28;20201;-48
2023/09/19 04:42:45;;;;;;;3.33;1.40;;;;;;;;;;5094020;28;20163;-51
2023/09/19 04:45:13;;;;;;;4.33;1.53;;;;;;;;;;5092805;28;20254;-48
2023/09/19 04:47:40;;;;;;;7.63;1.67;;;;;;;;;;5091704;28;20257;-50
2023/09/19 04:50:13;;;;;;;7.97;2.37;;;;;;;;;;5092653;28;20179;-51
2023/09/19 04:52:42;;;;;;;5.17;2.07;;;;;;;;;;5092763;28;20172;-50
2023/09/19 04:55:10;;;;;;;4.77;1.40;;;;;;;;;;5093625;28;20176;-51
2023/09/19 04:57:36;;;;;;;9.60;1.73;;;;;;;;;;5103978;28;20661;-48
2023/09/19 05:00:10;;;;;;;4.90;1.30;;;;;;;;;;5096335;28;20206;-52
2023/09/19 05:02:37;;;;;;;5.50;2.30;;;;;;;;;;5114277;28;20243;-50
2023/09/19 05:05:04;;;;;;;3.87;1.43;;;;;;;;;;5097766;28;20549;-48
2023/09/19 05:07:30;;;;;;;7.23;1.80;;;;;;;;;;5114875;28;20612;-48
2023/09/19 05:09:58;;;;;;;4.70;1.97;;;;;;;;;;5098156;28;20190;-48
2023/09/19 05:12:27;;;;;;;4.93;1.43;;;;;;;;;;5116022;28;20193;-53
2023/09/19 05:14:53;;;;;;;4.47;1.23;;;;;;;;;;5081884;28;20232;-52
2023/09/19 05:17:19;;;;;;;6.37;1.90;;;;;;;;;;5114909;28;20175;-49
2023/09/19 05:19:46;;;;;;;9.57;1.73;;;;;;;;;;5096973;28;20207;-53
2023/09/19 05:22:12;;;;;;;2.60;1.47;;;;;;;;;;5095193;28;20171;-50
2023/09/19 05:24:39;;;;;;;3.57;2.10;;;;;;;;;;5094053;28;20311;-48
2023/09/19 05:27:07;;;;;;;6.47;2.43;;;;;;;;;;5093479;28;20559;-48
2023/09/19 05:29:33;;;;;;;5.63;1.67;;;;;;;;;;5092986;28;20687;-50
2023/09/19 05:31:59;;;;;;;4.87;2.00;;;;;;;;;;5093971;28;20683;-52
2023/09/19 05:34:30;;;;;;;4.43;1.37;;;;;;;;;;5091718;28;20574;-48
2023/09/19 05:36:57;;;;;;;7.83;2.30;;;;;;;;;;5091953;28;20269;-54
2023/09/19 05:39:23;;;;;;;5.90;1.90;;;;;;;;;;5091429;28;20240;-51
2023/09/19 05:41:49;;;;;;;5.67;2.03;;;;;;;;;;5094434;28;20553;-49
2023/09/19 05:44:16;;;;;;;3.03;1.33;;;;;;;;;;5094229;28;20168;-52
2023/09/19 05:46:45;;;;;;;5.50;1.80;;;;;;;;;;5112804;28;20258;-52
2023/09/19 05:49:11;;;;;;;5.60;1.83;;;;;;;;;;5094340;28;20178;-51
2023/09/19 05:51:38;;;;;;;6.00;1.77;;;;;;;;;;5091997;28;20171;-50
2023/09/19 05:54:04;;;;;;;7.40;1.87;;;;;;;;;;5092883;28;20247;-48
2023/09/19 05:56:31;;;;;;;4.83;2.40;;;;;;;;;;5091578;28;20302;-48
2023/09/19 05:58:59;;;;;;;6.43;1.80;;;;;;;;;;5110005;28;20483;-50
2023/09/19 06:01:27;;;;;;;9.63;2.87;;;;;;;;;;5092835;28;20197;-52
2023/09/19 06:03:54;;;;;;;6.50;2.03;;;;;;;;;;5091825;28;20207;-49
2023/09/19 06:06:20;;;;;;;5.03;1.87;;;;;;;;;;5110303;28;20294;-49
2023/09/19 06:08:50;;;;;;;5.63;1.60;;;;;;;;;;5109437;28;20254;-51
2023/09/19 06:11:20;;;;;;;12.57;1.67;;;;;;;;;;5108896;28;20167;-55
2023/09/19 06:13:47;;;;;;;5.83;2.00;;;;;;;;;;5107825;28;20172;-51
2023/09/19 06:16:13;;;;;;;10.37;2.20;;;;;;;;;;5091553;28;20491;-52
2023/09/19 06:18:40;;;;;;;3.47;1.60;;;;;;;;;;5092266;28;20218;-52
2023/09/19 06:21:07;;;;;;;9.83;2.37;;;;;;;;;;5094299;28;20530;-48
2023/09/19 06:23:37;;;;;;;6.53;2.20;;;;;;;;;;5093798;28;20175;-50
2023/09/19 06:26:06;;;;;;;6.87;1.93;;;;;;;;;;5095229;28;20203;-52
2023/09/19 06:28:33;;;;;;;5.90;2.00;;;;;;;;;;5111931;28;20578;-49
2023/09/19 06:31:02;;;;;;;8.30;2.20;;;;;;;;;;5094423;28;20181;-54
2023/09/19 06:33:31;;;;;;;4.63;1.80;;;;;;;;;;5092680;28;20270;-50
2023/09/19 06:36:00;;;;;;;10.13;2.10;;;;;;;;;;5092399;28;20274;-51
2023/09/19 06:38:27;;;;;;;5.13;2.00;;;;;;;;;;5095975;28;20171;-49
2023/09/19 06:40:55;;;;;;;7.17;2.23;;;;;;;;;;5095753;28;20175;-49
2023/09/19 06:43:22;;;;;;;5.00;1.93;;;;;;;;;;5094249;28;20266;-53
2023/09/19 06:45:51;;;;;;;6.97;1.80;;;;;;;;;;5095572;28;20271;-51
2023/09/19 06:48:21;;;;;;;8.13;2.53;;;;;;;;;;5098117;28;20178;-55
2023/09/19 06:50:48;;;;;;;12.03;2.10;;;;;;;;;;5115241;28;20171;-48
2023/09/19 06:53:14;;;;;;;8.23;2.00;;;;;;;;;;5098265;28;20215;-51
2023/09/19 06:55:43;;;;;;;6.30;1.57;;;;;;;;;;5098346;28;20244;-51
2023/09/19 06:58:11;;;;;;;6.03;2.30;;;;;;;;;;5114383;28;20249;-52
2023/09/19 07:00:38;;;;;;;5.53;1.90;;;;;;;;;;5114815;28;20167;-50
2023/09/19 07:03:08;;;;;;;5.83;1.70;;;;;;;;;;5096610;28;20187;-54
2023/09/19 07:05:38;;;;;;;5.83;1.90;;;;;;;;;;5113449;28;20849;-50
2023/09/19 07:08:06;;;;;;;7.90;2.50;;;;;;;;;;5094551;28;20266;-53
2023/09/19 07:10:33;;;;;;;6.23;2.13;;;;;;;;;;5094058;28;20262;-51
2023/09/19 07:13:03;;;;;;;8.07;2.70;;;;;;;;;;5094003;28;20200;-54
2023/09/19 07:15:30;;;;;;;6.50;1.93;;;;;;;;;;5112346;28;20171;-55
2023/09/19 07:17:57;;;;;;;6.20;1.67;;;;;;;;;;5094116;28;20179;-48
2023/09/19 07:20:26;;;;;;;8.83;2.17;;;;;;;;;;5111708;28;20172;-51
2023/09/19 07:22:59;;;;;;;9.23;2.17;;;;;;;;;;5094400;28;20567;-52
2023/09/19 07:25:25;;;;;;;4.53;2.10;;;;;;;;;;5095927;28;20214;-55
2023/09/19 07:27:53;;;;;;;10.37;2.00;;;;;;;;;;5094810;28;20527;-51
2023/09/19 07:30:19;;;;;;;8.50;2.60;;;;;;;;;;5095395;28;20164;-51
2023/09/19 07:32:45;;;;;;;7.33;2.30;;;;;;;;;;5094175;28;20568;-53
2023/09/19 07:35:12;;;;;;;11.10;2.50;;;;;;;;;;5094366;28;20179;-50
2023/09/19 07:37:38;;;;;;;9.13;3.30;;;;;;;;;;5093913;28;20188;-51
2023/09/19 07:40:09;;;;;;;12.07;2.07;;;;;;;;;;5095386;28;20176;-53
2023/09/19 07:42:35;;;;;;;6.37;3.67;;;;;;;;;;5112461;28;20163;-53
2023/09/19 07:45:02;;;;;;;5.50;2.20;;;;;;;;;;5111686;28;20605;-52
2023/09/19 07:47:32;;;;;;;7.00;3.27;;;;;;;;;;5095141;28;20167;-52
2023/09/19 07:50:01;;;;;;;8.47;2.20;;;;;;;;;;5094075;28;20236;-48
2023/09/19 07:52:27;;;;;;;13.33;2.87;;;;;;;;;;5094306;28;20176;-50
2023/09/19 07:54:57;;;;;;;9.40;3.00;;;;;;;;;;5093528;28;20177;-50
2023/09/19 07:57:24;;;;;;;8.33;2.20;;;;;;;;;;5111672;28;20223;-48
2023/09/19 07:59:51;;;;;;;7.77;2.40;;;;;;;;;;5094420;28;20171;-51
2023/09/19 08:02:18;;;;;;;10.83;2.63;;;;;;;;;;5111929;28;20171;-51
2023/09/19 08:04:45;;;;;;;10.10;2.27;;;;;;;;;;5095535;28;20515;-51
2023/09/19 08:07:14;;;;;;;8.17;2.50;;;;;;;;;;5114414;28;20167;-47
2023/09/19 08:09:41;;;;;;;7.27;2.80;;;;;;;;;;5095627;28;20174;-47
2023/09/19 08:12:10;;;;;;;11.20;2.60;;;;;;;;;;5094749;28;20163;-51
2023/09/19 08:14:37;;;;;;;8.07;2.40;;;;;;;;;;5095149;28;20163;-48
2023/09/19 08:17:05;;;;;;;12.20;2.80;;;;;;;;;;5093646;28;20190;-54
2023/09/19 08:19:33;;;;;;;8.30;2.47;;;;;;;;;;5093797;28;20221;-52
2023/09/19 08:21:59;;;;;;;9.70;2.70;;;;;;;;;;5094032;28;20203;-50
2023/09/19 08:24:29;;;;;;;9.87;2.90;;;;;;;;;;5092856;28;20163;-50
2023/09/19 08:26:55;;;;;;;10.37;2.40;;;;;;;;;;5093351;28;20196;-49
2023/09/19 08:29:27;;;;;;;7.47;2.40;;;;;;;;;;5095271;28;20171;-48
2023/09/19 08:31:55;;;;;;;8.13;2.97;;;;;;;;;;5094790;28;20607;-53
2023/09/19 08:34:21;;;;;;;8.23;2.13;;;;;;;;;;5095682;28;20172;-52
2023/09/19 08:36:47;;;;;;;14.17;2.73;;;;;;;;;;5094460;28;20174;-52
2023/09/19 08:39:14;;;;;;;9.37;3.63;;;;;;;;;;5094841;28;20172;-52
2023/09/19 08:41:40;;;;;;;8.43;3.00;;;;;;;;;;5091960;28;20762;-53
2023/09/19 08:44:06;;;;;;;9.40;2.33;;;;;;;;;;5092879;28;20172;-53
2023/09/19 08:46:35;;;;;;;6.23;2.33;;;;;;;;;;5092040;28;20226;-54
2023/09/19 08:49:01;;;;;;;5.03;1.90;;;;;;;;;;5092944;28;20270;-53
2023/09/19 08:51:34;;;;;;;4.53;1.93;;;;;;;;;;5092000;28;20263;-56
2023/09/19 08:54:06;;;;;;;7.60;2.23;;;;;;;;;;5092713;28;20167;-53
2023/09/19 08:56:33;;;;;;;6.87;2.77;;;;;;;;;;5111053;28;20491;-53
2023/09/19 08:59:07;;;;;;;6.40;2.03;;;;;;;;;;5110653;28;20171;-53
2023/09/19 09:01:33;;;;;;;9.77;3.07;;;;;;;;;;5090813;28;20198;-52
2023/09/19 09:04:02;;;;;;;13.03;2.63;;;;;;;;;;5092580;28;20175;-56
2023/09/19 09:06:28;;;;;;;8.40;2.37;;;;;;;;;;5093472;28;20211;-54
2023/09/19 09:08:54;;;;;;;7.40;2.13;;;;;;;;;;5110678;28;20270;-57
2023/09/19 09:11:21;;;;;;;18.07;5.27;;;;;;;;;;5092017;28;20175;-53
2023/09/19 09:13:49;;;;;;;8.03;2.27;;;;;;;;;;5091119;28;20570;-55
2023/09/19 09:16:19;;;;;;;9.33;2.20;;;;;;;;;;5093549;28;20647;-52
2023/09/19 09:18:52;;;;;;;11.67;3.07;;;;;;;;;;5092766;28;20181;-57
2023/09/19 09:21:18;;;;;;;11.73;2.70;;;;;;;;;;5094495;28;20179;-55
2023/09/19 09:23:45;;;;;;;9.63;2.93;;;;;;;;;;5093796;28;20272;-55
2023/09/19 09:26:12;;;;;;;10.23;2.43;;;;;;;;;;5094817;28;20218;-54
2023/09/19 09:28:47;;;;;;;9.93;2.77;;;;;;;;;;5095003;28;20211;-50
2023/09/19 09:31:24;;;;;;;12.07;2.97;;;;;;;;;;5092624;28;20171;-57
2023/09/19 09:33:55;;;;;;;8.67;3.07;;;;;;;;;;5109668;28;20167;-53
2023/09/19 09:36:40;;;;;;;10.60;2.33;;;;;;;;;;5092794;28;20174;-54
2023/09/19 09:39:24;;;;;;;8.33;2.57;;;;;;;;;;5109878;28;20807;-54
2023/09/19 09:41:52;;;;;;;9.03;2.20;;;;;;;;;;5091592;28;20183;-54
2023/09/19 09:44:19;;;;;;;10.10;2.50;;;;;;;;;;5091813;28;20171;-52
2023/09/19 09:46:58;;;;;;;8.07;2.53;;;;;;;;;;5109364;28;20828;-53
2023/09/19 09:52:00;;;;;;;10.73;2.87;;;;;;;;;;5109407;28;20167;-55
2023/09/19 09:54:33;;;;;;;7.67;2.13;;;;;;;;;;5109880;28;20194;-54
2023/09/19 09:57:23;;;;;;;7.30;2.40;;;;;;;;;;5109328;28;20565;-53
2023/09/19 10:00:16;;;;;;;6.57;2.03;;;;;;;;;;5094134;28;20209;-55
2023/09/19 10:02:45;;;;;;;13.13;2.27;;;;;;;;;;5109278;28;20156;-55
2023/09/19 10:05:28;;;;;;;8.50;2.90;;;;;;;;;;5109673;28;20297;-54
2023/09/19 10:07:59;;;;;;;6.47;2.23;;;;;;;;;;5092113;28;20551;-56
2023/09/19 10:13:07;;;;;;;7.03;2.13;;;;;;;;;;5113774;28;20174;-56
2023/09/19 10:15:36;;;;;;;7.80;2.10;;;;;;;;;;5096449;28;20178;-52
2023/09/19 10:18:04;;;;;;;8.53;2.10;;;;;;;;;;5096797;28;20217;-51
2023/09/19 10:20:35;;;;;;;4.97;1.60;;;;;;;;;;5077051;28;20279;-49
2023/09/19 10:23:01;;;;;;;5.83;1.37;;;;;;;;;;5093488;28;20167;-56
2023/09/19 10:25:28;;;;;;;8.87;2.30;;;;;;;;;;5092712;28;20460;-57
2023/09/19 10:28:00;;;;;;;6.67;1.83;;;;;;;;;;5111434;28;20488;-56
2023/09/19 10:30:28;;;;;;;4.90;1.70;;;;;;;;;;5097918;28;20191;-54
2023/09/19 10:33:00;;;;;;;6.17;1.93;;;;;;;;;;5096730;28;20167;-56
2023/09/19 10:35:27;;;;;;;11.10;2.60;;;;;;;;;;5095034;28;20183;-53
2023/09/19 10:37:55;;;;;;;11.87;2.73;;;;;;;;;;5096092;28;20483;-53
2023/09/19 10:40:26;;;;;;;8.23;2.57;;;;;;;;;;5112608;28;20167;-55
2023/09/19 10:42:55;;;;;;;7.93;2.20;;;;;;;;;;5095652;28;20228;-54
2023/09/19 10:45:22;;;;;;;9.80;1.90;;;;;;;;;;5112450;28;20260;-52
2023/09/19 10:47:48;;;;;;;5.87;2.33;;;;;;;;;;5094309;28;20176;-54
2023/09/19 10:50:21;;;;;;;6.07;2.10;;;;;;;;;;5094921;28;20178;-52
2023/09/19 10:52:52;;;;;;;7.80;1.87;;;;;;;;;;5093804;28;20210;-53
2023/09/19 10:55:22;;;;;;;5.37;1.83;;;;;;;;;;5094332;28;20566;-52
2023/09/19 10:57:49;;;;;;;7.53;1.93;;;;;;;;;;5090482;28;20281;-51
2023/09/19 11:00:27;;;;;;;10.53;1.60;;;;;;;;;;5090970;28;20233;-54
2023/09/19 11:03:12;;;;;;;6.53;1.90;;;;;;;;;;5092131;28;20195;-50
2023/09/19 11:05:42;;;;;;;7.63;2.37;;;;;;;;;;5091245;28;20226;-54
2023/09/19 11:08:09;;;;;;;6.97;2.10;;;;;;;;;;5092136;28;20263;-54
2023/09/19 11:11:06;;;;;;;5.63;1.77;;;;;;;;;;5090281;28;20237;-54
2023/09/19 11:13:37;;;;;;;7.17;2.00;;;;;;;;;;5072606;28;20211;-50
2023/09/19 11:16:05;;;;;;;4.80;1.70;;;;;;;;;;5093119;28;20271;-53
2023/09/19 11:18:50;;;;;;;9.27;2.10;;;;;;;;;;5092935;28;20567;-53
2023/09/19 11:21:30;;;;;;;11.60;1.80;;;;;;;;;;5092819;28;20470;-52
2023/09/19 11:24:21;;;;;;;5.13;1.40;;;;;;;;;;5090810;28;20171;-53
2023/09/19 11:26:49;;;;;;;3.47;1.37;;;;;;;;;;5089345;28;20264;-54
2023/09/19 11:29:25;;;;;;;6.90;2.50;;;;;;;;;;5088821;28;20245;-52
2023/09/19 11:31:56;;;;;;;5.83;1.80;;;;;;;;;;5085674;28;20178;-54
2023/09/19 11:34:50;;;;;;;7.50;2.63;;;;;;;;;;5070938;28;20825;-50
2023/09/19 11:37:16;;;;;;;4.60;1.70;;;;;;;;;;5068419;28;20191;-50
2023/09/19 11:40:01;;;;;;;7.13;2.00;;;;;;;;;;5072050;28;20219;-50
2023/09/19 11:42:45;;;;;;;9.50;2.33;;;;;;;;;;5072736;28;20282;-50
2023/09/19 11:45:30;;;;;;;5.03;1.97;;;;;;;;;;5089656;28;20829;-51
2023/09/19 11:47:58;;;;;;;7.90;2.43;;;;;;;;;;5090634;28;20172;-54
2023/09/19 11:50:26;;;;;;;7.87;1.83;;;;;;;;;;5072743;28;20187;-54
2023/09/19 11:52:55;;;;;;;8.33;2.03;;;;;;;;;;5071711;28;20422;-54
2023/09/19 11:55:25;;;;;;;6.77;1.93;;;;;;;;;;5090837;28;20497;-50
2023/09/19 11:57:55;;;;;;;8.23;1.90;;;;;;;;;;5071592;28;20627;-52
2023/09/19 12:00:23;;;;;;;7.73;1.90;;;;;;;;;;5072061;28;20263;-52
2023/09/19 12:02:56;;;;;;;9.27;2.20;;;;;;;;;;5072065;28;20172;-49
2023/09/19 12:05:33;;;;;;;7.33;2.00;;;;;;;;;;5071136;28;20213;-51
2023/09/19 12:07:59;;;;;;;7.57;2.20;;;;;;;;;;5054203;28;20799;-52
2023/09/19 12:10:27;;;;;;;9.60;1.80;;;;;;;;;;5069040;28;20209;-53
2023/09/19 12:12:56;;;;;;;7.57;2.20;;;;;;;;;;5067752;28;20217;-50
2023/09/19 12:15:34;;;;;;;6.37;2.30;;;;;;;;;;5067896;28;20234;-53
2023/09/19 12:18:03;;;;;;;7.93;2.10;;;;;;;;;;5067127;28;20172;-54
2023/09/19 12:20:47;;;;;;;4.80;1.60;;;;;;;;;;5066651;28;20176;-54
2023/09/19 12:23:15;;;;;;;6.20;1.90;;;;;;;;;;5064628;28;20176;-54
2023/09/19 12:25:48;;;;;;;3.77;1.90;;;;;;;;;;5066863;28;20212;-55
2023/09/19 12:28:16;;;;;;;10.27;2.20;;;;;;;;;;5085879;28;20164;-49
2023/09/19 12:30:44;;;;;;;6.97;2.20;;;;;;;;;;5065927;28;20564;-48
2023/09/19 12:33:19;;;;;;;7.80;2.67;;;;;;;;;;5066811;28;20215;-55
2023/09/19 12:35:45;;;;;;;10.77;3.73;;;;;;;;;;5084648;28;20201;-52
2023/09/19 12:38:12;;;;;;;6.00;1.83;;;;;;;;;;5085681;28;20210;-54
2023/09/19 12:40:42;;;;;;;6.73;2.63;;;;;;;;;;5085906;28;20164;-49
2023/09/19 12:43:09;;;;;;;7.07;2.10;;;;;;;;;;5070496;28;20180;-53
2023/09/19 12:45:38;;;;;;;5.30;2.00;;;;;;;;;;5070938;28;20207;-52
2023/09/19 12:48:31;;;;;;;6.40;2.13;;;;;;;;;;5071370;28;20275;-55
2023/09/19 12:51:15;;;;;;;7.63;2.33;;;;;;;;;;5096680;28;20167;-54
2023/09/19 12:53:46;;;;;;;11.77;2.33;;;;;;;;;;5074639;28;20168;-50
2023/09/19 12:56:14;;;;;;;7.40;2.10;;;;;;;;;;5089151;28;20530;-49
2023/09/19 12:59:00;;;;;;;6.53;2.50;;;;;;;;;;5070562;28;20171;-52
2023/09/19 13:01:30;;;;;;;6.17;2.40;;;;;;;;;;5070525;28;20175;-46
2023/09/19 13:04:12;;;;;;;10.13;2.20;;;;;;;;;;5070849;28;20511;-53
2023/09/19 13:06:43;;;;;;;10.33;2.50;;;;;;;;;;5070060;28;20208;-53
2023/09/19 13:09:14;;;;;;;7.40;2.50;;;;;;;;;;5086051;28;20243;-48
2023/09/19 13:11:43;;;;;;;8.23;2.40;;;;;;;;;;5069329;28;20835;-46
2023/09/19 13:14:24;;;;;;;5.73;1.80;;;;;;;;;;5088353;28;20198;-50
2023/09/19 13:17:03;;;;;;;7.03;2.13;;;;;;;;;;5071858;28;20168;-46
2023/09/19 13:19:35;;;;;;;7.93;2.80;;;;;;;;;;5065995;28;20172;-46
2023/09/19 13:22:03;;;;;;;8.97;2.13;;;;;;;;;;5082120;28;20212;-46
2023/09/19 13:24:30;;;;;;;5.30;2.13;;;;;;;;;;5064763;28;20441;-49
2023/09/19 13:26:57;;;;;;;8.27;2.33;;;;;;;;;;5065734;28;20243;-53
2023/09/19 13:29:23;;;;;;;7.07;2.43;;;;;;;;;;5065494;28;20292;-49
2023/09/19 13:31:52;;;;;;;6.37;2.50;;;;;;;;;;5066070;28;20258;-53
2023/09/19 13:34:19;;;;;;;6.90;2.10;;;;;;;;;;5064875;28;20168;-53
2023/09/19 13:36:48;;;;;;;10.67;2.47;;;;;;;;;;5083903;28;20176;-49
2023/09/19 13:39:15;;;;;;;6.53;2.23;;;;;;;;;;5066586;28;20294;-51
2023/09/19 13:41:42;;;;;;;10.13;2.53;;;;;;;;;;5069392;28;20220;-51
2023/09/19 13:44:10;;;;;;;5.67;2.20;;;;;;;;;;5086290;28;20267;-49
2023/09/19 13:46:37;;;;;;;8.80;2.70;;;;;;;;;;5062964;28;20207;-52
2023/09/19 13:49:03;;;;;;;6.43;2.13;;;;;;;;;;5064586;28;20168;-52
2023/09/19 13:51:30;;;;;;;5.33;2.03;;;;;;;;;;5064138;28;20416;-55
2023/09/19 13:53:56;;;;;;;9.77;2.10;;;;;;;;;;5064614;28;20164;-53
2023/09/19 13:56:22;;;;;;;8.53;2.70;;;;;;;;;;5081504;28;20416;-54
2023/09/19 13:58:48;;;;;;;9.63;2.77;;;;;;;;;;5081910;28;20183;-49
2023/09/19 14:01:15;;;;;;;4.83;1.87;;;;;;;;;;5064399;28;20277;-53
2023/09/19 14:03:46;;;;;;;7.37;2.07;;;;;;;;;;5081560;28;20551;-52
2023/09/19 14:06:12;;;;;;;6.30;1.93;;;;;;;;;;5084849;28;20196;-54
2023/09/19 14:08:38;;;;;;;5.10;2.27;;;;;;;;;;5064678;28;20238;-56
2023/09/19 14:11:08;;;;;;;5.07;2.13;;;;;;;;;;5064299;28;20219;-56
2023/09/19 14:13:35;;;;;;;8.10;2.37;;;;;;;;;;5065632;28;20574;-57
2023/09/19 14:16:08;;;;;;;6.70;2.17;;;;;;;;;;5089747;28;20164;-50
2023/09/19 14:18:34;;;;;;;6.40;2.63;;;;;;;;;;5070232;28;20172;-54
2023/09/19 14:21:08;;;;;;;7.87;2.23;;;;;;;;;;5088524;28;20201;-51
2023/09/19 14:23:37;;;;;;;4.30;1.63;;;;;;;;;;5070827;28;20227;-52
2023/09/19 14:26:05;;;;;;;8.60;2.27;;;;;;;;;;5070207;28;20311;-54
2023/09/19 14:28:33;;;;;;;6.60;1.90;;;;;;;;;;5086693;28;20317;-49
2023/09/19 14:31:04;;;;;;;4.73;2.20;;;;;;;;;;5066565;28;20169;-53
2023/09/19 14:33:31;;;;;;;7.77;2.43;;;;;;;;;;5066426;28;20550;-51
2023/09/19 14:35:57;;;;;;;5.53;2.47;;;;;;;;;;5066138;28;20168;-50
2023/09/19 14:38:23;;;;;;;7.27;2.53;;;;;;;;;;5084604;28;20168;-51
2023/09/19 14:40:50;;;;;;;4.13;1.50;;;20.40;99.90;;;;;;5066252;28;20176;-52
2023/09/19 14:43:16;;;;;;;8.40;2.60;;;20.60;99.90;;;;;;5082874;28;20168;-51
2023/09/19 14:45:41;;;;;;;6.70;2.07;;;20.50;99.90;;;;;;5064585;28;20806;-51
2023/09/19 14:48:07;;;;;;;5.37;2.17;;;20.30;99.90;;;;;;5082036;28;20172;-51
2023/09/19 14:50:33;;;;;;;8.87;1.87;;;20.30;99.90;;;;;;5064341;28;20199;-55
2023/09/19 14:53:01;;;;;;;5.63;2.13;;;20.20;99.90;;;;;;5082574;28;20176;-50
2023/09/19 14:55:29;;;;;;;9.17;2.23;;;20.20;99.90;;;;;;5063733;28;20173;-53
2023/09/19 14:57:56;;;;;;;5.10;2.00;;;20.10;99.90;;;;;;5067603;28;20185;-51